createdAt,value
2019-05-18T00:00:37.731Z,11.75
2019-05-18T00:01:37.715Z,11.69
2019-05-18T00:02:37.695Z,11.65
2019-05-18T00:03:37.675Z,11.61
2019-05-18T00:04:37.705Z,11.69
2019-05-18T00:05:37.639Z,11.61
2019-05-18T00:06:37.617Z,11.65
2019-05-18T00:07:37.600Z,11.55
2019-05-18T00:08:37.581Z,11.54
2019-05-18T00:09:37.582Z,11.55
2019-05-18T06:01:33.251Z,13.14
2019-05-18T06:02:33.223Z,13.20
2019-05-18T06:03:33.191Z,13.14
2019-05-18T06:04:33.170Z,13.22
2019-05-18T06:05:33.151Z,13.19
2019-05-18T06:06:33.144Z,13.23
2019-05-18T06:07:33.112Z,13.33
2019-05-18T06:08:33.092Z,13.33
2019-05-18T06:09:40.921Z,13.32
2019-05-18T06:10:33.057Z,13.48
2019-05-18T06:11:33.044Z,13.52
2019-05-18T06:12:33.011Z,13.59
2019-05-18T06:13:32.999Z,13.69
2019-05-18T06:14:32.972Z,13.71
2019-05-18T06:15:32.954Z,13.73
2019-05-18T06:16:32.951Z,13.82
2019-05-18T06:17:32.919Z,13.79
2019-05-18T06:18:32.905Z,13.95
2019-05-18T06:19:32.879Z,13.92
2019-05-18T06:20:32.862Z,13.81
2019-05-18T06:21:32.872Z,13.91
2019-05-18T06:22:32.827Z,14.03
2019-05-18T06:23:32.808Z,13.88
2019-05-18T06:24:32.788Z,13.82
2019-05-18T06:25:34.346Z,13.87
2019-05-18T06:26:32.767Z,13.92
2019-05-18T06:27:32.733Z,13.84
2019-05-18T06:28:32.717Z,13.84
2019-05-18T06:29:32.702Z,13.82
2019-05-18T06:30:32.683Z,13.95
2019-05-18T06:31:32.693Z,13.92
2019-05-18T06:32:32.672Z,13.92
2019-05-18T06:33:32.629Z,13.92
2019-05-18T06:34:32.613Z,14.02
2019-05-18T06:35:32.593Z,14.04
2019-05-18T06:36:32.577Z,13.89
2019-05-18T06:37:32.573Z,14.00
2019-05-18T06:38:32.540Z,13.88
2019-05-18T06:39:32.524Z,13.96
2019-05-18T06:40:32.507Z,13.96
2019-05-18T06:41:32.488Z,13.87
2019-05-18T06:42:32.484Z,13.97
2019-05-18T06:43:32.452Z,14.00
2019-05-18T06:44:32.437Z,13.91
2019-05-18T06:45:32.422Z,14.06
2019-05-18T06:46:32.403Z,14.02
2019-05-18T06:47:32.404Z,14.06
2019-05-18T06:48:32.367Z,14.17
2019-05-18T06:49:32.351Z,14.12
2019-05-18T06:50:32.331Z,14.18
2019-05-18T06:51:32.314Z,14.24
2019-05-18T06:52:32.313Z,14.29
2019-05-18T06:53:32.279Z,14.24
2019-05-18T06:54:32.263Z,14.27
2019-05-18T06:55:32.253Z,14.32
2019-05-18T06:56:32.231Z,14.43
2019-05-18T06:57:32.231Z,14.45
2019-05-18T06:58:32.193Z,14.55
2019-05-18T06:59:32.180Z,14.62
2019-05-18T07:00:32.161Z,14.69
2019-05-18T07:01:32.143Z,14.81
2019-05-18T07:02:32.127Z,15.07
2019-05-18T07:03:32.130Z,15.10
2019-05-18T07:04:32.092Z,15.25
2019-05-18T07:05:32.077Z,15.31
2019-05-18T07:06:32.062Z,15.11
2019-05-18T07:07:32.041Z,15.13
2019-05-18T07:08:32.043Z,15.11
2019-05-18T07:09:32.011Z,15.03
2019-05-18T07:10:31.992Z,15.02
2019-05-18T07:11:31.975Z,15.13
2019-05-18T07:12:31.959Z,15.32
2019-05-18T07:13:31.967Z,15.34
2019-05-18T07:14:31.927Z,15.41
2019-05-18T07:15:31.911Z,15.35
2019-05-18T07:16:31.899Z,15.47
2019-05-18T07:17:34.577Z,15.51
2019-05-18T07:18:31.897Z,15.68
2019-05-18T07:19:31.842Z,15.76
2019-05-18T07:20:31.827Z,15.94
2019-05-18T07:21:31.814Z,15.92
2019-05-18T07:22:31.816Z,15.83
2019-05-18T07:23:31.786Z,15.67
2019-05-18T07:24:31.780Z,15.80
2019-05-18T07:25:31.748Z,15.94
2019-05-18T07:26:31.733Z,16.05
2019-05-18T07:27:31.716Z,15.78
2019-05-18T07:28:31.698Z,15.68
2019-05-18T07:29:31.696Z,15.72
2019-05-18T07:30:31.668Z,15.71
2019-05-18T07:31:31.658Z,16.04
2019-05-18T07:32:31.637Z,16.28
2019-05-18T07:33:31.629Z,16.61
2019-05-18T07:34:31.619Z,16.88
2019-05-18T07:35:31.586Z,16.98
2019-05-18T07:36:31.571Z,17.16
2019-05-18T07:37:31.558Z,16.91
2019-05-18T07:38:31.538Z,16.56
2019-05-18T07:39:31.537Z,16.42
2019-05-18T07:40:31.549Z,16.38
2019-05-18T07:41:45.859Z,16.60
2019-05-18T07:42:31.475Z,16.88
2019-05-18T07:43:31.462Z,17.03
2019-05-18T07:44:31.490Z,17.21
2019-05-18T07:45:31.439Z,17.36
2019-05-18T07:46:31.432Z,17.49
2019-05-18T07:47:31.409Z,17.14
2019-05-18T07:48:31.384Z,16.89
2019-05-18T07:49:31.386Z,16.98
2019-05-18T07:50:31.370Z,16.91
2019-05-18T07:51:37.081Z,16.94
2019-05-18T07:52:31.324Z,17.00
2019-05-18T07:53:31.313Z,17.12
2019-05-18T07:54:31.293Z,17.19
2019-05-18T07:55:31.292Z,17.18
2019-05-18T07:56:31.263Z,17.14
2019-05-18T07:57:31.249Z,17.11
2019-05-18T07:58:31.251Z,17.31
2019-05-18T07:59:31.218Z,17.21
2019-05-18T08:00:31.216Z,17.16
2019-05-18T08:01:31.188Z,17.11
2019-05-18T08:02:31.185Z,17.08
2019-05-18T08:03:31.158Z,17.31
2019-05-18T08:04:31.142Z,17.15
2019-05-18T08:05:31.141Z,17.28
2019-05-18T08:06:31.141Z,17.33
2019-05-18T08:07:31.097Z,17.49
2019-05-18T08:08:31.079Z,17.77
2019-05-18T08:09:31.067Z,17.81
2019-05-18T08:10:31.089Z,17.77
2019-05-18T08:11:31.037Z,17.96
2019-05-18T08:12:31.039Z,17.96
2019-05-18T08:13:31.005Z,18.12
2019-05-18T08:14:30.990Z,18.08
2019-05-18T08:15:30.983Z,18.14
2019-05-18T08:16:30.975Z,18.05
2019-05-18T08:17:30.947Z,18.25
2019-05-18T08:18:30.932Z,18.21
2019-05-18T08:19:30.917Z,18.42
2019-05-18T08:20:30.903Z,18.60
2019-05-18T08:21:30.902Z,18.44
2019-05-18T08:22:30.874Z,18.52
2019-05-18T08:23:30.858Z,18.65
2019-05-18T08:24:30.842Z,18.82
2019-05-18T08:25:30.842Z,18.73
2019-05-18T08:26:30.837Z,18.65
2019-05-18T08:27:30.801Z,18.55
2019-05-18T08:28:30.787Z,18.75
2019-05-18T08:29:30.772Z,18.90
2019-05-18T08:30:30.755Z,18.91
2019-05-18T08:31:30.743Z,18.91
2019-05-18T08:32:30.743Z,19.14
2019-05-18T08:33:30.712Z,19.41
2019-05-18T08:34:30.711Z,19.19
2019-05-18T08:35:30.683Z,19.40
2019-05-18T08:36:30.669Z,19.47
2019-05-18T08:37:30.668Z,19.68
2019-05-18T08:38:30.641Z,19.86
2019-05-18T08:39:30.627Z,19.84
2019-05-18T08:40:30.614Z,19.62
2019-05-18T08:41:30.598Z,19.99
2019-05-18T08:42:30.609Z,20.21
2019-05-18T08:43:30.570Z,20.18
2019-05-18T08:44:30.596Z,20.35
2019-05-18T08:45:30.542Z,20.18
2019-05-18T08:46:30.529Z,20.39
2019-05-18T08:47:30.528Z,20.08
2019-05-18T08:48:30.503Z,20.16
2019-05-18T08:49:30.489Z,20.11
2019-05-18T08:50:30.477Z,20.47
2019-05-18T08:51:30.461Z,20.47
2019-05-18T08:52:30.463Z,20.48
2019-05-18T08:53:30.435Z,20.28
2019-05-18T08:54:30.423Z,19.94
2019-05-18T08:55:30.412Z,19.73
2019-05-18T08:56:30.395Z,19.80
2019-05-18T08:57:30.395Z,19.83
2019-05-18T08:58:30.368Z,19.68
2019-05-18T08:59:30.355Z,19.59
2019-05-18T09:00:30.349Z,19.56
2019-05-18T09:01:30.330Z,19.40
2019-05-18T09:02:30.329Z,19.23
2019-05-18T09:03:30.307Z,18.85
2019-05-18T09:04:30.292Z,18.73
2019-05-18T09:05:30.275Z,18.75
2019-05-18T09:06:30.261Z,18.85
2019-05-18T09:20:35.368Z,19.54
2019-05-18T09:21:35.311Z,19.84
2019-05-18T09:22:35.336Z,19.86
2019-05-18T09:23:35.298Z,19.84
2019-05-18T09:24:35.316Z,19.91
2019-05-18T09:25:35.249Z,19.94
2019-05-18T09:26:35.238Z,19.91
2019-05-18T09:27:42.974Z,19.98
2019-05-18T09:28:35.224Z,19.95
2019-05-18T09:29:35.192Z,20.01
2019-05-18T09:30:35.174Z,20.05
2019-05-18T09:31:35.160Z,19.98
2019-05-18T09:32:35.144Z,20.03
2019-05-18T09:40:28.360Z,20.36
2019-05-18T09:41:28.333Z,20.41
2019-05-18T09:42:28.313Z,20.47
2019-05-18T09:43:28.298Z,20.67
2019-05-18T09:44:28.321Z,20.80
2019-05-18T09:45:28.280Z,21.01
2019-05-18T09:46:37.533Z,21.07
2019-05-18T09:47:28.239Z,21.19
2019-05-18T09:48:28.226Z,21.25
2019-05-18T09:49:28.227Z,21.44
2019-05-18T09:50:28.211Z,21.53
2019-05-18T09:51:28.181Z,21.61
2019-05-18T09:52:44.025Z,21.58
2019-05-18T09:53:30.029Z,21.38
2019-05-18T09:54:28.146Z,21.38
2019-05-18T09:55:28.143Z,21.43
2019-05-18T09:56:28.113Z,21.19
2019-05-18T09:57:28.101Z,21.35
2019-05-18T09:58:28.090Z,21.44
2019-05-18T09:59:28.073Z,21.67
2019-05-18T10:00:28.078Z,21.28
2019-05-18T10:01:28.070Z,21.42
2019-05-18T10:02:28.036Z,21.38
2019-05-18T10:03:28.023Z,21.29
2019-05-18T10:04:28.009Z,21.56
2019-05-18T10:05:28.012Z,21.64
2019-05-18T10:06:27.984Z,21.74
2019-05-18T10:07:27.971Z,21.77
2019-05-18T10:08:27.963Z,21.71
2019-05-18T10:09:38.484Z,21.69
2019-05-18T10:10:27.953Z,21.94
2019-05-18T10:11:27.933Z,21.84
2019-05-18T10:12:27.909Z,21.71
2019-05-18T10:13:27.899Z,21.77
2019-05-18T10:14:27.889Z,21.74
2019-05-18T10:15:27.884Z,21.84
2019-05-18T10:16:27.859Z,21.98
2019-05-18T10:17:27.848Z,21.91
2019-05-18T10:18:27.836Z,21.75
2019-05-18T10:19:27.829Z,21.84
2019-05-18T10:20:27.836Z,21.84
2019-05-18T10:21:27.806Z,21.96
2019-05-18T10:22:27.788Z,21.92
2019-05-18T10:23:27.773Z,22.21
2019-05-18T10:24:27.765Z,22.43
2019-05-18T10:25:27.765Z,22.72
2019-05-18T10:26:27.736Z,22.73
2019-05-18T10:27:27.724Z,22.62
2019-05-18T10:28:27.715Z,22.61
2019-05-18T10:29:27.700Z,22.46
2019-05-18T10:30:27.705Z,22.49
2019-05-18T10:31:27.675Z,22.49
2019-05-18T10:32:27.666Z,22.65
2019-05-18T10:33:27.652Z,22.68
2019-05-18T10:34:27.643Z,22.91
2019-05-18T10:35:27.645Z,22.83
2019-05-18T10:36:27.620Z,22.85
2019-05-18T10:37:27.605Z,22.76
2019-05-18T10:38:27.594Z,22.79
2019-05-18T10:39:27.583Z,22.68
2019-05-18T10:40:27.569Z,22.80
2019-05-18T10:41:27.574Z,22.91
2019-05-18T10:42:27.549Z,22.65
2019-05-18T10:43:27.546Z,22.57
2019-05-18T10:44:27.523Z,22.57
2019-05-18T10:45:27.526Z,22.62
2019-05-18T10:46:27.512Z,22.52
2019-05-18T10:47:27.488Z,22.54
2019-05-18T10:48:27.476Z,22.55
2019-05-18T10:49:27.463Z,22.46
2019-05-18T10:50:27.453Z,22.42
2019-05-18T10:51:27.461Z,22.46
2019-05-18T10:52:27.428Z,22.30
2019-05-18T10:53:28.985Z,22.45
2019-05-18T10:54:27.406Z,22.91
2019-05-18T10:55:27.396Z,23.23
2019-05-18T10:56:27.380Z,23.28
2019-05-18T10:57:27.384Z,23.35
2019-05-18T10:58:27.358Z,23.33
2019-05-18T10:59:27.346Z,23.51
2019-05-18T11:00:27.335Z,24.05
2019-05-18T11:01:27.323Z,24.58
2019-05-18T11:02:27.328Z,24.69
2019-05-18T11:03:27.299Z,24.96
2019-05-18T11:04:27.321Z,24.81
2019-05-18T11:05:27.278Z,24.96
2019-05-18T11:06:27.306Z,25.40
2019-05-18T11:07:29.073Z,25.58
2019-05-18T11:08:27.240Z,25.03
2019-05-18T11:09:27.231Z,24.91
2019-05-18T11:10:27.222Z,24.64
2019-05-18T11:11:27.209Z,24.64
2019-05-18T11:12:27.216Z,24.81
2019-05-18T11:13:27.192Z,25.14
2019-05-18T11:14:27.175Z,25.32
2019-05-18T11:15:27.165Z,25.62
2019-05-18T11:16:27.154Z,25.67
2019-05-18T11:17:27.161Z,26.26
2019-05-18T11:18:30.264Z,26.60
2019-05-18T11:19:27.118Z,26.70
2019-05-18T11:20:27.110Z,27.12
2019-05-18T11:21:27.099Z,27.46
2019-05-18T11:22:27.102Z,27.74
2019-05-18T11:23:27.076Z,27.96
2019-05-18T11:24:27.075Z,28.12
2019-05-18T11:25:27.056Z,28.02
2019-05-18T11:26:27.045Z,27.79
2019-05-18T11:27:27.048Z,27.27
2019-05-18T11:28:27.023Z,27.50
2019-05-18T11:29:27.021Z,27.93
2019-05-18T11:30:27.003Z,28.14
2019-05-18T11:31:26.996Z,27.87
2019-05-18T11:32:26.996Z,26.65
2019-05-18T11:33:26.978Z,25.82
2019-05-18T11:34:26.993Z,25.97
2019-05-18T11:35:26.960Z,26.57
2019-05-18T11:36:26.959Z,26.82
2019-05-18T11:37:26.970Z,27.40
2019-05-18T11:38:26.924Z,26.75
2019-05-18T11:39:26.912Z,26.67
2019-05-18T11:40:26.903Z,26.52
2019-05-18T11:41:26.893Z,26.63
2019-05-18T11:42:26.882Z,27.19
2019-05-18T11:43:26.887Z,27.46
2019-05-18T11:44:26.863Z,27.77
2019-05-18T11:45:26.854Z,27.87
2019-05-18T11:46:26.845Z,27.19
2019-05-18T11:47:26.838Z,27.19
2019-05-18T11:48:26.836Z,26.26
2019-05-18T11:49:29.061Z,25.42
2019-05-18T11:50:26.805Z,25.58
2019-05-18T11:51:26.797Z,26.15
2019-05-18T11:52:26.792Z,26.63
2019-05-18T11:53:26.792Z,26.99
2019-05-18T11:54:26.766Z,27.25
2019-05-18T11:55:26.755Z,27.28
2019-05-18T11:56:26.751Z,26.17
2019-05-18T11:57:26.735Z,25.02
2019-05-18T11:58:26.747Z,24.49
2019-05-18T11:59:26.718Z,24.35
2019-05-18T12:00:26.707Z,24.50
2019-05-18T12:01:26.701Z,24.91
2019-05-18T12:02:26.689Z,24.53
2019-05-18T12:03:26.679Z,24.62
2019-05-18T12:04:26.687Z,24.99
2019-05-18T12:05:26.661Z,24.99
2019-05-18T12:06:26.655Z,24.32
2019-05-18T12:07:26.638Z,25.32
2019-05-18T12:08:26.630Z,25.80
2019-05-18T12:09:26.644Z,26.13
2019-05-18T12:10:26.608Z,26.72
2019-05-18T12:11:26.609Z,26.52
2019-05-18T12:12:26.590Z,26.89
2019-05-18T12:13:26.580Z,27.24
2019-05-18T12:14:26.592Z,27.39
2019-05-18T12:15:26.561Z,27.79
2019-05-18T12:16:26.550Z,27.29
2019-05-18T12:17:26.546Z,27.44
2019-05-18T12:18:26.530Z,26.69
2019-05-18T12:19:26.519Z,26.51
2019-05-18T12:20:26.528Z,26.57
2019-05-18T12:21:26.500Z,27.25
2019-05-18T12:22:26.493Z,27.57
2019-05-18T12:23:26.479Z,27.74
2019-05-18T12:24:26.470Z,27.46
2019-05-18T12:25:26.478Z,26.63
2019-05-18T12:26:26.460Z,27.21
2019-05-18T12:27:26.445Z,27.78
2019-05-18T12:28:26.435Z,27.70
2019-05-18T12:29:26.426Z,27.57
2019-05-18T12:30:26.429Z,28.04
2019-05-18T12:31:26.410Z,28.36
2019-05-18T12:32:26.427Z,28.34
2019-05-18T12:33:26.386Z,28.19
2019-05-18T12:34:26.376Z,28.30
2019-05-18T12:35:26.444Z,27.25
2019-05-18T12:36:26.360Z,27.28
2019-05-18T12:37:26.347Z,27.43
2019-05-18T12:38:26.364Z,27.63
2019-05-18T12:39:26.329Z,27.44
2019-05-18T12:40:26.321Z,26.88
2019-05-18T12:41:26.328Z,26.62
2019-05-18T12:42:26.306Z,26.45
2019-05-18T12:43:26.299Z,26.09
2019-05-18T12:44:26.284Z,26.51
2019-05-18T12:45:26.287Z,27.03
2019-05-18T12:46:26.332Z,27.78
2019-05-18T12:47:26.279Z,26.72
2019-05-18T12:48:26.251Z,26.26
2019-05-18T12:49:26.238Z,25.13
2019-05-18T12:50:26.230Z,24.64
2019-05-18T12:51:26.236Z,24.64
2019-05-18T12:52:26.212Z,23.75
2019-05-18T12:53:26.202Z,23.50
2019-05-18T12:54:29.495Z,23.38
2019-05-18T12:55:26.194Z,23.61
2019-05-18T12:56:26.199Z,23.60
2019-05-18T12:57:26.164Z,23.94
2019-05-18T12:58:26.156Z,24.55
2019-05-18T12:59:26.166Z,25.77
2019-05-18T13:00:26.138Z,25.18
2019-05-18T13:01:26.126Z,24.62
2019-05-18T13:02:26.130Z,25.03
2019-05-18T13:03:26.137Z,25.20
2019-05-18T13:04:26.096Z,24.52
2019-05-18T13:05:26.099Z,23.98
2019-05-18T13:06:26.080Z,24.15
2019-05-18T13:07:26.082Z,24.10
2019-05-18T13:08:26.059Z,24.50
2019-05-18T13:09:26.052Z,25.00
2019-05-18T13:10:26.041Z,25.13
2019-05-18T13:11:26.032Z,26.18
2019-05-18T13:12:26.054Z,27.24
2019-05-18T13:13:26.013Z,26.66
2019-05-18T13:14:26.006Z,25.85
2019-05-18T13:15:25.994Z,25.79
2019-05-18T13:16:25.982Z,26.73
2019-05-18T13:17:25.976Z,27.55
2019-05-18T13:18:25.978Z,27.60
2019-05-18T13:19:25.961Z,26.18
2019-05-18T13:20:25.948Z,26.09
2019-05-18T13:21:25.938Z,25.15
2019-05-18T13:22:25.935Z,24.95
2019-05-18T13:23:25.935Z,24.61
2019-05-18T13:24:25.914Z,24.35
2019-05-18T13:25:25.904Z,23.76
2019-05-18T13:26:25.894Z,23.16
2019-05-18T13:27:38.451Z,23.22
2019-05-18T13:28:25.894Z,23.32
2019-05-18T13:29:25.868Z,23.01
2019-05-18T13:30:25.857Z,22.88
2019-05-18T13:31:25.850Z,22.77
2019-05-18T13:32:25.839Z,22.31
2019-05-18T13:33:25.828Z,21.72
2019-05-18T13:34:25.832Z,21.37
2019-05-18T13:35:25.807Z,20.70
2019-05-18T13:36:25.799Z,20.26
2019-05-18T13:37:25.787Z,20.03
2019-05-18T13:38:25.784Z,19.99
2019-05-18T13:39:25.779Z,19.83
2019-05-18T13:40:25.755Z,19.56
2019-05-18T13:41:25.751Z,19.39
2019-05-18T13:42:25.734Z,19.50
2019-05-18T13:43:25.722Z,19.29
2019-05-18T13:44:25.729Z,19.18
2019-05-18T13:45:25.699Z,19.10
2019-05-18T13:46:25.688Z,19.28
2019-05-18T13:47:25.689Z,19.22
2019-05-18T13:48:25.664Z,19.41
2019-05-18T13:49:25.652Z,19.32
2019-05-18T13:50:25.654Z,19.37
2019-05-18T13:51:25.627Z,19.36
2019-05-18T13:52:25.621Z,19.33
2019-05-18T13:53:25.606Z,19.18
2019-05-18T13:54:25.589Z,19.19
2019-05-18T13:55:25.591Z,19.10
2019-05-18T13:56:25.573Z,18.90
2019-05-18T13:57:25.556Z,18.87
2019-05-18T13:58:25.539Z,18.72
2019-05-18T13:59:25.525Z,18.66
2019-05-18T14:00:25.527Z,18.66
2019-05-18T14:01:25.530Z,18.75
2019-05-18T14:02:25.536Z,18.69
2019-05-18T14:03:25.493Z,18.69
2019-05-18T14:04:25.476Z,18.52
2019-05-18T14:05:25.523Z,18.54
2019-05-18T14:06:25.433Z,18.57
2019-05-18T14:07:25.435Z,18.66
2019-05-18T14:08:25.415Z,18.80
2019-05-18T14:09:25.394Z,18.72
2019-05-18T14:10:25.379Z,18.78
2019-05-18T14:11:25.380Z,18.70
2019-05-18T14:12:25.353Z,18.90
2019-05-18T14:13:25.342Z,18.87
2019-05-18T14:14:25.328Z,18.82
2019-05-18T14:15:25.313Z,18.81
2019-05-18T14:16:25.315Z,18.70
2019-05-18T14:17:25.309Z,18.58
2019-05-18T14:18:25.289Z,18.58
2019-05-18T14:19:25.322Z,18.51
2019-05-18T14:20:26.545Z,18.51
2019-05-18T14:21:25.230Z,18.57
2019-05-18T14:22:25.233Z,18.41
2019-05-18T14:23:25.201Z,18.54
2019-05-18T14:24:25.196Z,18.41
2019-05-18T14:25:25.176Z,18.48
2019-05-18T14:26:25.159Z,18.51
2019-05-18T14:27:25.160Z,18.62
2019-05-18T14:28:25.162Z,18.54
2019-05-18T14:29:25.118Z,18.65
2019-05-18T14:30:25.105Z,18.54
2019-05-18T14:31:25.093Z,18.51
2019-05-18T14:32:25.093Z,18.63
2019-05-18T14:33:25.062Z,18.63
2019-05-18T14:34:25.055Z,18.62
2019-05-18T14:35:25.033Z,18.48
2019-05-18T14:36:25.056Z,18.39
2019-05-18T14:37:25.022Z,18.48
2019-05-18T14:38:24.991Z,18.44
2019-05-18T14:39:24.974Z,18.48
2019-05-18T14:40:24.959Z,18.47
2019-05-18T14:41:24.946Z,18.45
2019-05-18T14:42:24.937Z,18.35
2019-05-18T14:43:24.934Z,18.39
2019-05-18T14:44:24.906Z,18.41
2019-05-18T14:45:24.889Z,18.44
2019-05-18T14:46:24.875Z,18.36
2019-05-18T14:47:27.454Z,18.35
2019-05-18T14:48:24.859Z,18.48
2019-05-18T14:49:24.831Z,18.45
2019-05-18T14:50:24.876Z,18.45
2019-05-18T14:51:24.802Z,18.54
2019-05-18T14:52:24.791Z,18.55
2019-05-18T14:53:24.789Z,18.62
2019-05-18T14:54:25.584Z,18.58
2019-05-18T14:55:33.183Z,18.57
2019-05-18T14:56:24.731Z,18.75
2019-05-18T14:57:25.801Z,18.91
2019-05-18T14:58:24.719Z,18.76
2019-05-18T14:59:24.690Z,18.75
2019-05-18T15:00:24.674Z,18.69
2019-05-18T15:01:24.661Z,18.66
2019-05-18T15:02:24.646Z,18.66
2019-05-18T15:03:24.631Z,18.69
2019-05-18T15:04:24.634Z,18.80
2019-05-18T15:05:24.605Z,18.99
2019-05-18T15:06:24.592Z,18.92
2019-05-18T15:07:24.575Z,18.88
2019-05-18T15:08:24.561Z,18.88
2019-05-18T15:09:24.548Z,18.90
2019-05-18T15:10:24.549Z,18.90
2019-05-18T15:11:24.520Z,18.81
2019-05-18T15:12:24.508Z,18.90
2019-05-18T15:13:24.491Z,18.87
2019-05-18T15:14:24.476Z,18.66
2019-05-18T15:15:24.477Z,18.63
2019-05-18T15:16:24.462Z,18.73
2019-05-18T15:17:24.439Z,18.78
2019-05-18T15:18:24.422Z,18.62
2019-05-18T15:19:24.408Z,18.65
2019-05-18T15:20:24.407Z,18.72
2019-05-18T15:21:24.378Z,18.70
2019-05-18T15:22:24.364Z,18.85
2019-05-18T15:23:24.353Z,18.95
2019-05-18T15:24:24.339Z,18.99
2019-05-18T15:25:24.346Z,19.07
2019-05-18T15:26:24.308Z,19.19
2019-05-18T15:27:24.298Z,19.26
2019-05-18T15:28:24.280Z,19.31
2019-05-18T15:29:24.266Z,19.33
2019-05-18T15:30:24.275Z,19.43
2019-05-18T15:31:24.245Z,19.21
2019-05-18T15:32:24.231Z,19.21
2019-05-18T15:33:24.210Z,19.43
2019-05-18T15:34:24.197Z,19.40
2019-05-18T15:35:24.182Z,19.58
2019-05-18T15:36:24.185Z,19.68
2019-05-18T15:37:24.155Z,19.74
2019-05-18T15:38:24.142Z,19.86
2019-05-18T15:39:24.125Z,19.99
2019-05-18T15:40:24.115Z,19.80
2019-05-18T15:41:24.113Z,19.91
2019-05-18T15:42:24.087Z,19.80
2019-05-18T15:43:24.069Z,19.86
2019-05-18T15:44:24.057Z,19.86
2019-05-18T15:45:24.834Z,19.83
2019-05-18T15:46:24.050Z,19.87
2019-05-18T15:47:24.019Z,19.95
2019-05-18T15:48:24.132Z,19.88
2019-05-18T15:49:24.004Z,20.02
2019-05-18T15:50:23.976Z,20.10
2019-05-18T15:51:23.977Z,20.10
2019-05-18T15:52:23.962Z,20.01
2019-05-18T15:53:23.936Z,19.98
2019-05-18T15:54:23.920Z,19.87
2019-05-18T15:55:23.911Z,19.96
2019-05-18T15:56:23.899Z,19.84
2019-05-18T15:57:23.946Z,19.84
2019-05-18T15:58:23.868Z,19.95
2019-05-18T15:59:23.853Z,20.39
2019-05-18T16:00:23.840Z,20.55
2019-05-18T16:01:23.827Z,20.69
2019-05-18T16:02:23.835Z,21.06
2019-05-18T16:03:23.808Z,21.27
2019-05-18T16:04:23.785Z,21.25
2019-05-18T16:05:23.774Z,21.38
2019-05-18T16:06:23.770Z,21.88
2019-05-18T16:07:23.763Z,21.86
2019-05-18T16:08:23.759Z,21.99
2019-05-18T16:09:23.727Z,21.68
2019-05-18T16:10:23.713Z,21.32
2019-05-18T16:11:23.699Z,21.24
2019-05-18T16:12:23.701Z,21.12
2019-05-18T16:13:23.693Z,21.07
2019-05-18T16:14:23.703Z,21.25
2019-05-18T16:15:23.656Z,22.06
2019-05-18T16:16:23.658Z,22.86
2019-05-18T16:17:36.993Z,23.36
2019-05-18T16:18:23.621Z,23.46
2019-05-18T16:19:23.635Z,23.73
2019-05-18T16:20:23.589Z,23.46
2019-05-18T16:21:23.604Z,23.42
2019-05-18T16:22:23.630Z,24.34
2019-05-18T16:23:23.621Z,24.10
2019-05-18T16:24:23.600Z,24.21
2019-05-18T16:25:23.589Z,24.32
2019-05-18T16:26:23.552Z,24.27
2019-05-18T16:27:23.554Z,24.30
2019-05-18T16:28:23.529Z,24.55
2019-05-18T16:29:23.547Z,24.61
2019-05-18T16:30:23.520Z,24.24
2019-05-18T16:31:23.520Z,24.96
2019-05-18T16:32:23.509Z,24.24
2019-05-18T16:33:23.584Z,24.03
2019-05-18T16:34:23.496Z,23.72
2019-05-18T16:35:23.549Z,24.15
2019-05-18T16:36:23.479Z,23.53
2019-05-18T16:37:23.494Z,23.58
2019-05-18T16:38:23.545Z,24.03
2019-05-18T16:39:23.435Z,23.38
2019-05-18T16:40:23.436Z,23.70
2019-05-18T16:41:23.425Z,24.62
2019-05-18T16:42:23.420Z,23.85
2019-05-18T16:43:23.406Z,23.48
2019-05-18T16:44:23.415Z,23.91
2019-05-18T16:45:23.408Z,23.87
2019-05-18T16:46:23.397Z,23.76
2019-05-18T16:47:23.386Z,23.10
2019-05-18T16:48:23.371Z,23.10
2019-05-18T16:49:23.383Z,23.13
2019-05-18T16:50:23.366Z,23.17
2019-05-18T16:51:23.356Z,23.39
2019-05-18T16:52:23.357Z,24.12
2019-05-18T16:53:23.343Z,24.32
2019-05-18T16:54:23.355Z,24.53
2019-05-18T16:55:23.329Z,23.73
2019-05-18T16:56:34.578Z,23.54
2019-05-18T16:57:23.321Z,22.64
2019-05-18T16:58:23.373Z,22.43
2019-05-18T16:59:23.317Z,22.54
2019-05-18T17:00:23.297Z,22.31
2019-05-18T17:01:23.312Z,22.20
2019-05-18T17:02:31.561Z,21.86
2019-05-18T17:03:23.283Z,22.07
2019-05-18T17:04:23.392Z,22.62
2019-05-18T17:05:23.523Z,22.42
2019-05-18T17:06:23.256Z,22.72
2019-05-18T17:07:23.262Z,23.04
2019-05-18T17:08:23.248Z,23.47
2019-05-18T17:09:23.388Z,23.46
2019-05-18T17:10:23.286Z,23.28
2019-05-18T17:11:23.238Z,22.88
2019-05-18T17:12:23.213Z,21.98
2019-05-18T17:13:23.198Z,22.31
2019-05-18T17:14:23.214Z,22.68
2019-05-18T17:15:23.261Z,22.70
2019-05-18T17:16:23.191Z,22.46
2019-05-18T17:17:23.204Z,22.75
2019-05-18T17:18:23.154Z,22.40
2019-05-18T17:19:23.180Z,22.46
2019-05-18T17:20:23.176Z,22.49
2019-05-18T17:21:23.134Z,22.70
2019-05-18T17:22:23.136Z,22.45
2019-05-18T17:23:23.117Z,22.57
2019-05-18T17:24:23.119Z,22.40
2019-05-18T17:25:23.118Z,21.88
2019-05-18T17:26:23.100Z,21.47
2019-05-18T17:27:23.089Z,21.44
2019-05-18T17:28:23.075Z,21.21
2019-05-18T17:29:23.096Z,20.99
2019-05-18T17:30:23.071Z,20.98
2019-05-18T17:31:23.052Z,20.77
2019-05-18T17:32:23.041Z,20.72
2019-05-18T17:33:23.035Z,20.55
2019-05-18T17:34:23.028Z,20.42
2019-05-18T17:35:23.031Z,20.24
2019-05-18T17:36:23.023Z,20.16
2019-05-18T17:37:23.052Z,20.05
2019-05-18T17:38:22.992Z,20.05
2019-05-18T17:39:23.053Z,20.06
2019-05-18T17:40:23.011Z,19.98
2019-05-18T17:41:22.963Z,19.96
2019-05-18T17:42:22.937Z,19.92
2019-05-18T17:43:22.965Z,19.96
2019-05-18T17:44:22.923Z,19.91
2019-05-18T17:45:23.071Z,19.98
2019-05-18T17:46:22.914Z,19.98
2019-05-18T17:47:22.890Z,19.95
2019-05-18T17:48:22.885Z,19.87
2019-05-18T17:49:26.647Z,19.99
2019-05-18T17:50:22.874Z,20.01
2019-05-18T17:51:22.833Z,19.96
2019-05-18T17:52:22.827Z,19.99
2019-05-18T17:53:22.811Z,19.95
2019-05-18T17:54:22.797Z,19.94
2019-05-18T17:55:22.803Z,19.88
2019-05-18T17:56:22.840Z,19.78
2019-05-18T17:57:22.760Z,19.73
2019-05-18T17:58:22.750Z,19.62
2019-05-18T17:59:22.734Z,19.51
2019-05-18T18:00:22.727Z,19.46
2019-05-18T18:01:22.720Z,19.40
2019-05-18T18:02:22.694Z,19.28
2019-05-18T18:03:22.684Z,19.07
2019-05-18T18:04:22.676Z,18.90
2019-05-18T18:05:22.659Z,18.72
2019-05-18T18:06:22.663Z,18.47
2019-05-18T18:07:22.635Z,18.42
2019-05-18T18:08:22.615Z,18.36
2019-05-18T18:09:22.609Z,18.25
2019-05-18T18:10:22.592Z,18.23
2019-05-18T18:11:22.584Z,18.11
2019-05-18T18:12:22.583Z,17.96
2019-05-18T18:13:22.552Z,17.93
2019-05-18T18:14:22.543Z,17.82
2019-05-18T18:15:22.518Z,17.55
2019-05-18T18:16:22.513Z,17.62
2019-05-18T18:17:22.513Z,17.55
2019-05-18T18:18:22.490Z,17.58
2019-05-18T18:19:22.460Z,17.63
2019-05-18T18:20:22.451Z,17.56
2019-05-18T18:21:22.470Z,17.63
2019-05-18T18:22:23.859Z,17.54
2019-05-18T18:23:22.409Z,17.59
2019-05-18T18:24:22.399Z,17.48
2019-05-18T18:25:22.383Z,17.52
2019-05-18T18:26:22.371Z,17.51
2019-05-18T18:27:25.269Z,17.51
2019-05-18T18:28:22.342Z,17.48
2019-05-18T18:29:22.324Z,17.46
2019-05-18T18:30:22.315Z,17.52
2019-05-18T18:31:22.290Z,17.49
2019-05-18T18:32:22.296Z,17.52
2019-05-18T18:33:22.268Z,17.46
2019-05-18T18:34:22.249Z,17.49
2019-05-18T18:35:22.231Z,17.49
2019-05-18T18:36:22.226Z,17.56
2019-05-18T18:37:22.220Z,17.64
2019-05-18T18:38:22.189Z,17.63
2019-05-18T18:39:22.171Z,17.51
2019-05-18T18:40:22.160Z,17.46
2019-05-18T18:41:22.142Z,17.23
2019-05-18T18:42:22.168Z,17.12
2019-05-18T18:43:22.116Z,17.04
2019-05-18T18:44:22.100Z,17.01
2019-05-18T18:45:22.079Z,17.06
2019-05-18T18:46:22.070Z,16.93
2019-05-18T18:47:22.075Z,17.07
2019-05-18T18:48:22.037Z,16.94
2019-05-18T18:49:22.042Z,16.97
2019-05-18T18:50:22.009Z,17.04
2019-05-18T18:51:22.006Z,17.07
2019-05-18T18:52:21.983Z,16.98
2019-05-18T18:53:21.974Z,17.00
2019-05-18T18:54:21.947Z,16.97
2019-05-18T18:55:21.937Z,16.96
2019-05-18T18:56:21.913Z,17.00
2019-05-18T18:57:21.905Z,17.03
2019-05-18T18:58:21.909Z,17.11
2019-05-18T18:59:21.866Z,17.08
2019-05-18T19:00:21.853Z,17.15
2019-05-18T19:01:21.837Z,17.18
2019-05-18T19:02:21.845Z,17.15
2019-05-18T19:03:21.830Z,17.15